sensor_id;sensor_type;location;lat;lon;timestamp;temperature;humidity
26579;DHT22;14227;47.674;19.320;2023-04-24T00:00:16;7.80;61.00
26579;DHT22;14227;47.674;19.320;2023-04-24T00:02:43;7.90;61.00
26579;DHT22;14227;47.674;19.320;2023-04-24T00:05:13;7.90;60.60
26579;DHT22;14227;47.674;19.320;2023-04-24T00:07:43;8.00;60.30
26579;DHT22;14227;47.674;19.320;2023-04-24T00:10:10;8.00;60.30
26579;DHT22;14227;47.674;19.320;2023-04-24T00:12:36;8.10;60.70
26579;DHT22;14227;47.674;19.320;2023-04-24T00:15:02;8.10;61.10
26579;DHT22;14227;47.674;19.320;2023-04-24T00:17:28;8.10;60.40
26579;DHT22;14227;47.674;19.320;2023-04-24T00:19:54;8.20;60.10
26579;DHT22;14227;47.674;19.320;2023-04-24T00:22:24;8.20;60.00
26579;DHT22;14227;47.674;19.320;2023-04-24T00:24:50;8.20;60.00
26579;DHT22;14227;47.674;19.320;2023-04-24T00:27:16;8.30;59.00
26579;DHT22;14227;47.674;19.320;2023-04-24T00:29:42;8.30;59.00
26579;DHT22;14227;47.674;19.320;2023-04-24T00:32:07;8.40;59.10
26579;DHT22;14227;47.674;19.320;2023-04-24T00:34:33;8.40;59.60
26579;DHT22;14227;47.674;19.320;2023-04-24T00:36:59;8.40;59.10
26579;DHT22;14227;47.674;19.320;2023-04-24T00:39:24;8.50;59.30
26579;DHT22;14227;47.674;19.320;2023-04-24T00:41:51;8.50;59.60
26579;DHT22;14227;47.674;19.320;2023-04-24T00:44:17;8.60;60.50
26579;DHT22;14227;47.674;19.320;2023-04-24T00:46:42;8.70;60.40
26579;DHT22;14227;47.674;19.320;2023-04-24T00:49:08;8.80;59.30
26579;DHT22;14227;47.674;19.320;2023-04-24T00:51:34;8.90;58.50
26579;DHT22;14227;47.674;19.320;2023-04-24T00:54:00;9.00;58.30
26579;DHT22;14227;47.674;19.320;2023-04-24T00:56:27;9.10;59.00
26579;DHT22;14227;47.674;19.320;2023-04-24T00:58:53;9.30;59.70
26579;DHT22;14227;47.674;19.320;2023-04-24T01:01:22;9.40;58.70
26579;DHT22;14227;47.674;19.320;2023-04-24T01:03:49;9.60;57.80
26579;DHT22;14227;47.674;19.320;2023-04-24T01:06:16;9.80;57.30
26579;DHT22;14227;47.674;19.320;2023-04-24T01:08:43;9.90;56.90
26579;DHT22;14227;47.674;19.320;2023-04-24T01:11:10;10.00;56.00
26579;DHT22;14227;47.674;19.320;2023-04-24T01:13:36;10.10;56.00
26579;DHT22;14227;47.674;19.320;2023-04-24T01:16:02;10.20;55.50
26579;DHT22;14227;47.674;19.320;2023-04-24T01:18:28;10.30;55.40
26579;DHT22;14227;47.674;19.320;2023-04-24T01:20:57;10.40;55.00
26579;DHT22;14227;47.674;19.320;2023-04-24T01:23:23;10.50;54.90
26579;DHT22;14227;47.674;19.320;2023-04-24T01:25:49;10.60;54.40
26579;DHT22;14227;47.674;19.320;2023-04-24T01:28:16;10.70;53.80
26579;DHT22;14227;47.674;19.320;2023-04-24T01:30:42;10.80;53.50
26579;DHT22;14227;47.674;19.320;2023-04-24T01:33:08;10.90;53.90
26579;DHT22;14227;47.674;19.320;2023-04-24T01:35:35;11.00;53.00
26579;DHT22;14227;47.674;19.320;2023-04-24T01:38:02;11.00;51.50
26579;DHT22;14227;47.674;19.320;2023-04-24T01:40:28;11.00;52.20
26579;DHT22;14227;47.674;19.320;2023-04-24T01:42:54;11.10;52.80
26579;DHT22;14227;47.674;19.320;2023-04-24T01:45:20;11.10;52.70
26579;DHT22;14227;47.674;19.320;2023-04-24T01:47:45;11.20;52.50
26579;DHT22;14227;47.674;19.320;2023-04-24T01:50:12;11.20;52.20
26579;DHT22;14227;47.674;19.320;2023-04-24T01:52:38;11.30;51.20
26579;DHT22;14227;47.674;19.320;2023-04-24T01:55:04;11.30;50.90
26579;DHT22;14227;47.674;19.320;2023-04-24T01:57:33;11.30;51.60
26579;DHT22;14227;47.674;19.320;2023-04-24T01:59:59;11.40;51.20
26579;DHT22;14227;47.674;19.320;2023-04-24T02:02:25;11.40;50.90
26579;DHT22;14227;47.674;19.320;2023-04-24T02:04:53;11.40;51.10
26579;DHT22;14227;47.674;19.320;2023-04-24T02:07:19;11.40;51.30
26579;DHT22;14227;47.674;19.320;2023-04-24T02:09:46;11.40;50.70
26579;DHT22;14227;47.674;19.320;2023-04-24T02:12:11;11.50;51.10
26579;DHT22;14227;47.674;19.320;2023-04-24T02:14:37;11.50;51.20
26579;DHT22;14227;47.674;19.320;2023-04-24T02:17:03;11.50;50.90
26579;DHT22;14227;47.674;19.320;2023-04-24T02:19:29;11.50;50.70
26579;DHT22;14227;47.674;19.320;2023-04-24T02:21:54;11.50;50.20
26579;DHT22;14227;47.674;19.320;2023-04-24T02:24:20;11.60;50.70
26579;DHT22;14227;47.674;19.320;2023-04-24T02:26:46;11.60;50.50
26579;DHT22;14227;47.674;19.320;2023-04-24T02:29:11;11.60;50.40
26579;DHT22;14227;47.674;19.320;2023-04-24T02:31:37;11.60;50.80
26579;DHT22;14227;47.674;19.320;2023-04-24T02:34:02;11.60;50.50
26579;DHT22;14227;47.674;19.320;2023-04-24T02:36:28;11.60;50.90
26579;DHT22;14227;47.674;19.320;2023-04-24T02:38:54;11.60;51.70
26579;DHT22;14227;47.674;19.320;2023-04-24T02:41:20;11.60;52.20
26579;DHT22;14227;47.674;19.320;2023-04-24T02:43:45;11.60;52.00
26579;DHT22;14227;47.674;19.320;2023-04-24T02:46:11;11.70;52.20
26579;DHT22;14227;47.674;19.320;2023-04-24T02:48:37;11.60;52.30
26579;DHT22;14227;47.674;19.320;2023-04-24T02:51:03;11.70;52.00
26579;DHT22;14227;47.674;19.320;2023-04-24T02:53:29;11.70;51.40
26579;DHT22;14227;47.674;19.320;2023-04-24T02:55:56;11.80;52.60
26579;DHT22;14227;47.674;19.320;2023-04-24T02:58:24;11.70;54.60
26579;DHT22;14227;47.674;19.320;2023-04-24T03:00:54;11.60;57.50
26579;DHT22;14227;47.674;19.320;2023-04-24T03:03:21;11.40;59.20
26579;DHT22;14227;47.674;19.320;2023-04-24T03:05:46;11.20;60.70
26579;DHT22;14227;47.674;19.320;2023-04-24T03:08:12;11.10;61.90
26579;DHT22;14227;47.674;19.320;2023-04-24T03:10:40;11.00;62.10
26579;DHT22;14227;47.674;19.320;2023-04-24T03:13:05;11.00;63.80
26579;DHT22;14227;47.674;19.320;2023-04-24T03:15:31;11.00;63.80
26579;DHT22;14227;47.674;19.320;2023-04-24T03:17:57;10.90;64.10
26579;DHT22;14227;47.674;19.320;2023-04-24T03:20:23;10.90;64.20
26579;DHT22;14227;47.674;19.320;2023-04-24T03:22:48;10.80;64.50
26579;DHT22;14227;47.674;19.320;2023-04-24T03:25:14;10.80;64.60
26579;DHT22;14227;47.674;19.320;2023-04-24T03:27:40;10.80;64.70
26579;DHT22;14227;47.674;19.320;2023-04-24T03:30:07;10.80;64.80
26579;DHT22;14227;47.674;19.320;2023-04-24T03:32:33;10.80;65.70
26579;DHT22;14227;47.674;19.320;2023-04-24T03:34:59;10.70;65.60
26579;DHT22;14227;47.674;19.320;2023-04-24T03:37:24;10.80;66.00
26579;DHT22;14227;47.674;19.320;2023-04-24T03:39:51;10.80;65.90
26579;DHT22;14227;47.674;19.320;2023-04-24T03:42:17;10.80;65.80
26579;DHT22;14227;47.674;19.320;2023-04-24T03:44:43;10.80;65.70
26579;DHT22;14227;47.674;19.320;2023-04-24T03:47:08;10.80;65.80
26579;DHT22;14227;47.674;19.320;2023-04-24T03:49:34;10.80;65.80
26579;DHT22;14227;47.674;19.320;2023-04-24T03:52:00;10.80;65.60
26579;DHT22;14227;47.674;19.320;2023-04-24T03:54:25;10.80;66.10
26579;DHT22;14227;47.674;19.320;2023-04-24T03:56:51;10.80;66.50
26579;DHT22;14227;47.674;19.320;2023-04-24T03:59:17;10.80;66.50
26579;DHT22;14227;47.674;19.320;2023-04-24T04:01:42;10.90;66.40
26579;DHT22;14227;47.674;19.320;2023-04-24T04:04:08;10.90;66.10
26579;DHT22;14227;47.674;19.320;2023-04-24T04:06:34;10.90;66.10
26579;DHT22;14227;47.674;19.320;2023-04-24T04:09:02;10.90;65.90
26579;DHT22;14227;47.674;19.320;2023-04-24T04:11:28;10.90;66.30
26579;DHT22;14227;47.674;19.320;2023-04-24T04:13:54;10.80;66.30
26579;DHT22;14227;47.674;19.320;2023-04-24T04:16:20;10.80;65.70
26579;DHT22;14227;47.674;19.320;2023-04-24T04:18:46;10.80;65.90
26579;DHT22;14227;47.674;19.320;2023-04-24T04:21:11;10.90;65.70
26579;DHT22;14227;47.674;19.320;2023-04-24T04:23:37;10.90;65.50
26579;DHT22;14227;47.674;19.320;2023-04-24T04:26:03;10.90;65.50
26579;DHT22;14227;47.674;19.320;2023-04-24T04:28:30;11.00;65.40
26579;DHT22;14227;47.674;19.320;2023-04-24T04:30:58;11.00;65.60
26579;DHT22;14227;47.674;19.320;2023-04-24T04:33:24;11.00;66.10
26579;DHT22;14227;47.674;19.320;2023-04-24T04:35:50;11.00;66.40
26579;DHT22;14227;47.674;19.320;2023-04-24T04:38:19;11.10;66.20
26579;DHT22;14227;47.674;19.320;2023-04-24T04:40:45;11.10;66.30
26579;DHT22;14227;47.674;19.320;2023-04-24T04:43:12;11.10;66.30
26579;DHT22;14227;47.674;19.320;2023-04-24T04:45:39;11.10;66.10
26579;DHT22;14227;47.674;19.320;2023-04-24T04:48:06;11.20;66.30
26579;DHT22;14227;47.674;19.320;2023-04-24T04:50:37;11.20;65.90
26579;DHT22;14227;47.674;19.320;2023-04-24T04:53:03;11.30;65.70
26579;DHT22;14227;47.674;19.320;2023-04-24T04:55:29;11.30;65.60
26579;DHT22;14227;47.674;19.320;2023-04-24T04:57:54;11.30;65.60
26579;DHT22;14227;47.674;19.320;2023-04-24T05:00:21;11.20;65.30
26579;DHT22;14227;47.674;19.320;2023-04-24T05:02:47;11.40;65.80
26579;DHT22;14227;47.674;19.320;2023-04-24T05:05:13;11.50;65.80
26579;DHT22;14227;47.674;19.320;2023-04-24T05:07:38;11.50;65.60
26579;DHT22;14227;47.674;19.320;2023-04-24T05:10:07;11.60;65.20
26579;DHT22;14227;47.674;19.320;2023-04-24T05:12:32;11.70;65.00
26579;DHT22;14227;47.674;19.320;2023-04-24T05:14:58;11.70;64.90
26579;DHT22;14227;47.674;19.320;2023-04-24T05:17:24;11.80;65.10
26579;DHT22;14227;47.674;19.320;2023-04-24T05:19:50;11.80;65.00
26579;DHT22;14227;47.674;19.320;2023-04-24T05:22:16;11.80;64.70
26579;DHT22;14227;47.674;19.320;2023-04-24T05:24:44;11.90;64.80
26579;DHT22;14227;47.674;19.320;2023-04-24T05:27:10;11.90;64.70
26579;DHT22;14227;47.674;19.320;2023-04-24T05:29:36;12.00;64.60
26579;DHT22;14227;47.674;19.320;2023-04-24T05:32:01;12.10;64.40
26579;DHT22;14227;47.674;19.320;2023-04-24T05:34:27;12.20;64.00
26579;DHT22;14227;47.674;19.320;2023-04-24T05:36:53;12.40;63.50
26579;DHT22;14227;47.674;19.320;2023-04-24T05:39:19;12.70;62.20
26579;DHT22;14227;47.674;19.320;2023-04-24T05:41:45;13.20;60.90
26579;DHT22;14227;47.674;19.320;2023-04-24T05:44:11;13.50;60.50
26579;DHT22;14227;47.674;19.320;2023-04-24T05:46:36;13.70;59.50
26579;DHT22;14227;47.674;19.320;2023-04-24T05:49:02;13.80;59.60
26579;DHT22;14227;47.674;19.320;2023-04-24T05:51:28;13.90;59.70
26579;DHT22;14227;47.674;19.320;2023-04-24T05:53:54;14.20;60.00
26579;DHT22;14227;47.674;19.320;2023-04-24T05:56:20;14.40;59.90
26579;DHT22;14227;47.674;19.320;2023-04-24T05:58:46;14.50;58.80
26579;DHT22;14227;47.674;19.320;2023-04-24T06:01:12;14.60;57.90
26579;DHT22;14227;47.674;19.320;2023-04-24T06:03:40;14.50;57.10
26579;DHT22;14227;47.674;19.320;2023-04-24T06:06:06;14.60;58.10
26579;DHT22;14227;47.674;19.320;2023-04-24T06:08:32;14.70;58.70
26579;DHT22;14227;47.674;19.320;2023-04-24T06:10:58;14.80;59.00
26579;DHT22;14227;47.674;19.320;2023-04-24T06:13:24;14.90;58.20
26579;DHT22;14227;47.674;19.320;2023-04-24T06:15:50;14.80;58.40
26579;DHT22;14227;47.674;19.320;2023-04-24T06:18:16;14.80;57.00
26579;DHT22;14227;47.674;19.320;2023-04-24T06:20:42;14.80;58.00
26579;DHT22;14227;47.674;19.320;2023-04-24T06:23:08;14.70;57.70
26579;DHT22;14227;47.674;19.320;2023-04-24T06:25:33;14.60;58.90
26579;DHT22;14227;47.674;19.320;2023-04-24T06:27:59;14.60;58.80
26579;DHT22;14227;47.674;19.320;2023-04-24T06:30:25;14.60;58.40
26579;DHT22;14227;47.674;19.320;2023-04-24T06:32:52;14.60;59.00
26579;DHT22;14227;47.674;19.320;2023-04-24T06:35:18;14.60;59.10
26579;DHT22;14227;47.674;19.320;2023-04-24T06:37:44;14.60;59.20
26579;DHT22;14227;47.674;19.320;2023-04-24T06:40:10;14.60;58.60
26579;DHT22;14227;47.674;19.320;2023-04-24T06:42:36;14.50;59.00
26579;DHT22;14227;47.674;19.320;2023-04-24T06:45:02;14.50;59.30
26579;DHT22;14227;47.674;19.320;2023-04-24T06:47:27;14.60;60.30
26579;DHT22;14227;47.674;19.320;2023-04-24T06:49:53;14.70;60.40
26579;DHT22;14227;47.674;19.320;2023-04-24T06:52:20;14.80;58.70
26579;DHT22;14227;47.674;19.320;2023-04-24T06:54:46;14.90;59.20
26579;DHT22;14227;47.674;19.320;2023-04-24T06:57:12;15.00;60.30
26579;DHT22;14227;47.674;19.320;2023-04-24T06:59:38;14.90;58.90
26579;DHT22;14227;47.674;19.320;2023-04-24T07:02:03;15.10;60.00
26579;DHT22;14227;47.674;19.320;2023-04-24T07:04:29;15.20;59.20
26579;DHT22;14227;47.674;19.320;2023-04-24T07:06:56;15.30;57.40
26579;DHT22;14227;47.674;19.320;2023-04-24T07:09:25;15.40;57.30
26579;DHT22;14227;47.674;19.320;2023-04-24T07:11:51;15.40;57.20
26579;DHT22;14227;47.674;19.320;2023-04-24T07:14:18;15.40;56.90
26579;DHT22;14227;47.674;19.320;2023-04-24T07:16:44;15.40;56.90
26579;DHT22;14227;47.674;19.320;2023-04-24T07:19:12;15.30;58.10
26579;DHT22;14227;47.674;19.320;2023-04-24T07:21:37;15.10;59.40
26579;DHT22;14227;47.674;19.320;2023-04-24T07:24:03;14.80;60.50
26579;DHT22;14227;47.674;19.320;2023-04-24T07:26:30;14.70;61.50
26579;DHT22;14227;47.674;19.320;2023-04-24T07:28:56;14.50;62.50
26579;DHT22;14227;47.674;19.320;2023-04-24T07:31:21;14.40;63.00
26579;DHT22;14227;47.674;19.320;2023-04-24T07:33:47;14.40;63.90
26579;DHT22;14227;47.674;19.320;2023-04-24T07:36:13;14.40;64.00
26579;DHT22;14227;47.674;19.320;2023-04-24T07:38:46;14.50;64.50
26579;DHT22;14227;47.674;19.320;2023-04-24T07:41:15;14.50;65.30
26579;DHT22;14227;47.674;19.320;2023-04-24T07:43:41;14.60;65.30
26579;DHT22;14227;47.674;19.320;2023-04-24T07:46:08;14.70;65.20
26579;DHT22;14227;47.674;19.320;2023-04-24T07:48:34;14.70;64.40
26579;DHT22;14227;47.674;19.320;2023-04-24T07:51:00;14.70;64.10
26579;DHT22;14227;47.674;19.320;2023-04-24T07:53:26;14.80;64.30
26579;DHT22;14227;47.674;19.320;2023-04-24T07:55:51;15.10;63.80
26579;DHT22;14227;47.674;19.320;2023-04-24T07:58:17;15.50;64.40
26579;DHT22;14227;47.674;19.320;2023-04-24T08:00:43;16.10;63.00
26579;DHT22;14227;47.674;19.320;2023-04-24T08:03:08;16.60;62.20
26579;DHT22;14227;47.674;19.320;2023-04-24T08:05:34;16.90;61.10
26579;DHT22;14227;47.674;19.320;2023-04-24T08:08:00;16.90;58.70
26579;DHT22;14227;47.674;19.320;2023-04-24T08:10:25;17.10;58.90
26579;DHT22;14227;47.674;19.320;2023-04-24T08:12:51;17.60;59.90
26579;DHT22;14227;47.674;19.320;2023-04-24T08:15:17;18.70;57.70
26579;DHT22;14227;47.674;19.320;2023-04-24T08:17:43;19.80;53.00
26579;DHT22;14227;47.674;19.320;2023-04-24T08:20:10;20.50;50.90
26579;DHT22;14227;47.674;19.320;2023-04-24T08:22:42;20.50;48.60
26579;DHT22;14227;47.674;19.320;2023-04-24T08:25:09;20.60;49.70
26579;DHT22;14227;47.674;19.320;2023-04-24T08:27:35;21.10;48.40
26579;DHT22;14227;47.674;19.320;2023-04-24T08:30:03;21.50;47.20
26579;DHT22;14227;47.674;19.320;2023-04-24T08:32:28;21.70;44.30
26579;DHT22;14227;47.674;19.320;2023-04-24T08:34:58;21.80;43.60
26579;DHT22;14227;47.674;19.320;2023-04-24T08:37:25;21.80;44.00
26579;DHT22;14227;47.674;19.320;2023-04-24T08:39:51;21.80;41.90
26579;DHT22;14227;47.674;19.320;2023-04-24T08:42:18;21.90;41.80
26579;DHT22;14227;47.674;19.320;2023-04-24T08:44:44;22.10;40.80
26579;DHT22;14227;47.674;19.320;2023-04-24T08:47:11;22.50;39.60
26579;DHT22;14227;47.674;19.320;2023-04-24T08:49:38;22.80;38.10
26579;DHT22;14227;47.674;19.320;2023-04-24T08:52:05;23.00;39.50
26579;DHT22;14227;47.674;19.320;2023-04-24T08:54:33;23.30;37.00
26579;DHT22;14227;47.674;19.320;2023-04-24T08:57:00;23.00;37.00
26579;DHT22;14227;47.674;19.320;2023-04-24T08:59:32;22.60;37.50
26579;DHT22;14227;47.674;19.320;2023-04-24T09:02:00;22.50;36.80
26579;DHT22;14227;47.674;19.320;2023-04-24T09:04:28;22.30;37.80
26579;DHT22;14227;47.674;19.320;2023-04-24T09:06:57;22.30;38.30
26579;DHT22;14227;47.674;19.320;2023-04-24T09:09:23;22.60;38.10
26579;DHT22;14227;47.674;19.320;2023-04-24T09:11:50;23.00;37.00
26579;DHT22;14227;47.674;19.320;2023-04-24T09:14:17;23.60;36.30
26579;DHT22;14227;47.674;19.320;2023-04-24T09:16:43;24.20;35.70
26579;DHT22;14227;47.674;19.320;2023-04-24T09:19:09;24.90;33.20
26579;DHT22;14227;47.674;19.320;2023-04-24T09:21:35;25.40;32.30
26579;DHT22;14227;47.674;19.320;2023-04-24T09:24:03;25.80;31.70
26579;DHT22;14227;47.674;19.320;2023-04-24T09:26:35;26.80;29.60
26579;DHT22;14227;47.674;19.320;2023-04-24T09:29:03;27.40;28.50
26579;DHT22;14227;47.674;19.320;2023-04-24T09:31:29;27.30;28.20
26579;DHT22;14227;47.674;19.320;2023-04-24T09:33:57;27.30;28.20
26579;DHT22;14227;47.674;19.320;2023-04-24T09:36:42;27.40;28.20
26579;DHT22;14227;47.674;19.320;2023-04-24T09:39:13;27.40;28.10
26579;DHT22;14227;47.674;19.320;2023-04-24T09:41:48;26.70;27.90
26579;DHT22;14227;47.674;19.320;2023-04-24T09:44:19;26.00;29.20
26579;DHT22;14227;47.674;19.320;2023-04-24T09:46:51;25.40;29.80
26579;DHT22;14227;47.674;19.320;2023-04-24T09:49:23;25.20;30.70
26579;DHT22;14227;47.674;19.320;2023-04-24T09:51:50;25.30;30.90
26579;DHT22;14227;47.674;19.320;2023-04-24T09:54:17;25.60;30.40
26579;DHT22;14227;47.674;19.320;2023-04-24T09:56:47;26.00;30.10
26579;DHT22;14227;47.674;19.320;2023-04-24T09:59:15;26.20;29.70
26579;DHT22;14227;47.674;19.320;2023-04-24T10:01:41;26.00;29.90
26579;DHT22;14227;47.674;19.320;2023-04-24T10:04:26;26.10;29.90
26579;DHT22;14227;47.674;19.320;2023-04-24T10:06:53;26.10;29.90
26579;DHT22;14227;47.674;19.320;2023-04-24T10:09:21;26.30;29.10
26579;DHT22;14227;47.674;19.320;2023-04-24T10:11:49;26.50;29.30
26579;DHT22;14227;47.674;19.320;2023-04-24T10:14:23;26.80;29.20
26579;DHT22;14227;47.674;19.320;2023-04-24T10:16:52;27.20;28.80
26579;DHT22;14227;47.674;19.320;2023-04-24T10:19:18;27.60;28.30
26579;DHT22;14227;47.674;19.320;2023-04-24T10:21:45;28.30;28.00
26579;DHT22;14227;47.674;19.320;2023-04-24T10:24:17;29.10;26.70
26579;DHT22;14227;47.674;19.320;2023-04-24T10:26:44;29.50;25.30
26579;DHT22;14227;47.674;19.320;2023-04-24T10:29:12;29.90;25.30
26579;DHT22;14227;47.674;19.320;2023-04-24T10:31:39;29.70;24.90
26579;DHT22;14227;47.674;19.320;2023-04-24T10:34:05;29.00;25.20
26579;DHT22;14227;47.674;19.320;2023-04-24T10:36:33;28.50;26.50
26579;DHT22;14227;47.674;19.320;2023-04-24T10:39:07;28.50;26.50
26579;DHT22;14227;47.674;19.320;2023-04-24T10:41:37;28.40;26.60
26579;DHT22;14227;47.674;19.320;2023-04-24T10:44:11;28.90;25.30
26579;DHT22;14227;47.674;19.320;2023-04-24T10:46:38;29.30;23.10
26579;DHT22;14227;47.674;19.320;2023-04-24T10:49:08;29.20;22.60
26579;DHT22;14227;47.674;19.320;2023-04-24T10:51:50;28.80;23.00
26579;DHT22;14227;47.674;19.320;2023-04-24T11:00:13;26.70;24.50
26579;DHT22;14227;47.674;19.320;2023-04-24T11:02:38;26.00;25.50
26579;DHT22;14227;47.674;19.320;2023-04-24T11:05:06;25.20;26.20
26579;DHT22;14227;47.674;19.320;2023-04-24T11:10:45;24.80;26.80
26579;DHT22;14227;47.674;19.320;2023-04-24T11:13:13;24.80;26.50
26579;DHT22;14227;47.674;19.320;2023-04-24T11:15:41;24.50;26.50
26579;DHT22;14227;47.674;19.320;2023-04-24T11:18:14;24.50;26.50
26579;DHT22;14227;47.674;19.320;2023-04-24T11:20:44;24.40;26.50
26579;DHT22;14227;47.674;19.320;2023-04-24T11:23:12;24.20;27.60
26579;DHT22;14227;47.674;19.320;2023-04-24T11:25:38;24.10;27.30
26579;DHT22;14227;47.674;19.320;2023-04-24T11:28:05;24.10;27.60
26579;DHT22;14227;47.674;19.320;2023-04-24T11:30:32;23.90;27.60
26579;DHT22;14227;47.674;19.320;2023-04-24T11:33:05;23.80;27.70
26579;DHT22;14227;47.674;19.320;2023-04-24T11:35:36;23.60;28.40
26579;DHT22;14227;47.674;19.320;2023-04-24T11:38:04;23.40;28.60
26579;DHT22;14227;47.674;19.320;2023-04-24T11:40:30;23.30;28.80
26579;DHT22;14227;47.674;19.320;2023-04-24T11:42:56;23.10;28.80
26579;DHT22;14227;47.674;19.320;2023-04-24T11:45:29;22.90;29.20
26579;DHT22;14227;47.674;19.320;2023-04-24T11:47:55;22.90;29.70
26579;DHT22;14227;47.674;19.320;2023-04-24T11:50:23;22.70;29.80
26579;DHT22;14227;47.674;19.320;2023-04-24T11:52:51;22.60;30.10
26579;DHT22;14227;47.674;19.320;2023-04-24T11:57:50;22.50;30.00
26579;DHT22;14227;47.674;19.320;2023-04-24T12:00:17;22.40;30.40
26579;DHT22;14227;47.674;19.320;2023-04-24T12:02:44;22.20;30.90
26579;DHT22;14227;47.674;19.320;2023-04-24T12:05:22;22.10;31.60
26579;DHT22;14227;47.674;19.320;2023-04-24T12:07:48;22.30;32.50
26579;DHT22;14227;47.674;19.320;2023-04-24T12:10:23;22.50;35.20
26579;DHT22;14227;47.674;19.320;2023-04-24T12:12:50;22.50;36.50
26579;DHT22;14227;47.674;19.320;2023-04-24T12:15:18;22.60;34.60
26579;DHT22;14227;47.674;19.320;2023-04-24T12:17:44;22.50;32.50
26579;DHT22;14227;47.674;19.320;2023-04-24T12:20:11;22.70;32.90
26579;DHT22;14227;47.674;19.320;2023-04-24T12:22:54;22.80;32.90
26579;DHT22;14227;47.674;19.320;2023-04-24T12:25:22;23.00;31.80
26579;DHT22;14227;47.674;19.320;2023-04-24T12:27:53;23.00;31.10
26579;DHT22;14227;47.674;19.320;2023-04-24T12:30:20;23.10;31.00
26579;DHT22;14227;47.674;19.320;2023-04-24T12:32:48;23.10;31.10
26579;DHT22;14227;47.674;19.320;2023-04-24T12:35:26;22.90;31.40
26579;DHT22;14227;47.674;19.320;2023-04-24T12:37:52;22.70;31.80
26579;DHT22;14227;47.674;19.320;2023-04-24T12:40:20;22.60;31.70
26579;DHT22;14227;47.674;19.320;2023-04-24T12:42:50;22.30;31.70
26579;DHT22;14227;47.674;19.320;2023-04-24T12:45:17;22.50;32.00
26579;DHT22;14227;47.674;19.320;2023-04-24T12:47:44;22.70;32.60
26579;DHT22;14227;47.674;19.320;2023-04-24T12:50:12;23.00;33.60
26579;DHT22;14227;47.674;19.320;2023-04-24T12:52:38;22.90;35.90
26579;DHT22;14227;47.674;19.320;2023-04-24T12:55:06;22.80;37.50
26579;DHT22;14227;47.674;19.320;2023-04-24T12:57:36;22.80;38.40
26579;DHT22;14227;47.674;19.320;2023-04-24T13:00:03;22.50;39.20
26579;DHT22;14227;47.674;19.320;2023-04-24T13:02:31;22.20;40.20
26579;DHT22;14227;47.674;19.320;2023-04-24T13:04:58;21.90;42.40
26579;DHT22;14227;47.674;19.320;2023-04-24T13:07:24;21.70;43.00
26579;DHT22;14227;47.674;19.320;2023-04-24T13:09:51;21.60;45.70
26579;DHT22;14227;47.674;19.320;2023-04-24T13:12:17;21.40;46.70
26579;DHT22;14227;47.674;19.320;2023-04-24T13:14:43;21.00;45.60
26579;DHT22;14227;47.674;19.320;2023-04-24T13:17:09;20.80;48.20
26579;DHT22;14227;47.674;19.320;2023-04-24T13:19:40;20.60;46.30
26579;DHT22;14227;47.674;19.320;2023-04-24T13:22:06;20.50;44.90
26579;DHT22;14227;47.674;19.320;2023-04-24T13:24:32;20.30;45.40
26579;DHT22;14227;47.674;19.320;2023-04-24T13:26:59;20.20;44.30
26579;DHT22;14227;47.674;19.320;2023-04-24T13:29:26;20.10;43.30
26579;DHT22;14227;47.674;19.320;2023-04-24T13:31:53;20.20;42.60
26579;DHT22;14227;47.674;19.320;2023-04-24T13:34:26;20.30;41.90
26579;DHT22;14227;47.674;19.320;2023-04-24T13:36:54;20.20;42.00
26579;DHT22;14227;47.674;19.320;2023-04-24T13:39:20;20.10;42.60
26579;DHT22;14227;47.674;19.320;2023-04-24T13:41:46;19.90;43.90
26579;DHT22;14227;47.674;19.320;2023-04-24T13:44:14;19.70;43.80
26579;DHT22;14227;47.674;19.320;2023-04-24T13:46:47;19.50;44.60
26579;DHT22;14227;47.674;19.320;2023-04-24T13:49:13;19.30;46.90
26579;DHT22;14227;47.674;19.320;2023-04-24T13:51:40;19.20;51.40
26579;DHT22;14227;47.674;19.320;2023-04-24T13:54:06;18.90;53.40
26579;DHT22;14227;47.674;19.320;2023-04-24T13:56:32;18.50;55.30
26579;DHT22;14227;47.674;19.320;2023-04-24T13:58:58;18.20;56.20
26579;DHT22;14227;47.674;19.320;2023-04-24T14:01:24;17.80;59.40
26579;DHT22;14227;47.674;19.320;2023-04-24T14:03:52;17.60;61.70
26579;DHT22;14227;47.674;19.320;2023-04-24T14:06:19;17.20;67.50
26579;DHT22;14227;47.674;19.320;2023-04-24T14:09:23;17.00;69.80
26579;DHT22;14227;47.674;19.320;2023-04-24T14:15:48;16.30;84.40
26579;DHT22;14227;47.674;19.320;2023-04-24T14:18:21;16.10;85.50
26579;DHT22;14227;47.674;19.320;2023-04-24T14:24:33;16.00;83.70
26579;DHT22;14227;47.674;19.320;2023-04-24T14:27:01;15.90;83.20
26579;DHT22;14227;47.674;19.320;2023-04-24T14:30:03;15.80;83.60
26579;DHT22;14227;47.674;19.320;2023-04-24T14:32:28;15.90;83.60
26579;DHT22;14227;47.674;19.320;2023-04-24T14:34:56;15.70;89.10
26579;DHT22;14227;47.674;19.320;2023-04-24T14:37:22;15.50;91.90
26579;DHT22;14227;47.674;19.320;2023-04-24T14:39:48;15.40;95.20
26579;DHT22;14227;47.674;19.320;2023-04-24T14:42:13;15.20;94.50
26579;DHT22;14227;47.674;19.320;2023-04-24T14:44:39;15.20;95.10
26579;DHT22;14227;47.674;19.320;2023-04-24T14:47:05;15.20;95.00
26579;DHT22;14227;47.674;19.320;2023-04-24T14:49:31;15.10;97.70
26579;DHT22;14227;47.674;19.320;2023-04-24T15:25:53;14.50;99.90
26579;DHT22;14227;47.674;19.320;2023-04-24T15:36:11;14.70;99.90
26579;DHT22;14227;47.674;19.320;2023-04-24T15:38:56;14.70;99.90
26579;DHT22;14227;47.674;19.320;2023-04-24T15:41:42;14.60;99.90
26579;DHT22;14227;47.674;19.320;2023-04-24T15:53:18;14.70;99.90
26579;DHT22;14227;47.674;19.320;2023-04-24T20:03:59;13.20;94.20
26579;DHT22;14227;47.674;19.320;2023-04-24T21:05:03;12.70;92.60
26579;DHT22;14227;47.674;19.320;2023-04-24T21:11:22;12.70;93.10
26579;DHT22;14227;47.674;19.320;2023-04-24T21:20:53;12.70;92.80
26579;DHT22;14227;47.674;19.320;2023-04-24T21:30:20;12.60;92.60
26579;DHT22;14227;47.674;19.320;2023-04-24T21:32:48;12.60;92.20
26579;DHT22;14227;47.674;19.320;2023-04-24T21:35:15;12.60;92.20
26579;DHT22;14227;47.674;19.320;2023-04-24T21:37:41;12.60;92.20
26579;DHT22;14227;47.674;19.320;2023-04-24T21:40:27;12.50;92.00
26579;DHT22;14227;47.674;19.320;2023-04-24T21:56:34;12.50;92.20
26579;DHT22;14227;47.674;19.320;2023-04-24T22:02:17;12.50;92.20
26579;DHT22;14227;47.674;19.320;2023-04-24T22:05:13;12.40;92.10
26579;DHT22;14227;47.674;19.320;2023-04-24T22:11:32;12.40;91.90
26579;DHT22;14227;47.674;19.320;2023-04-24T22:17:38;12.50;92.20